Ana Sayfa
METAR-TAF:

METAR-TAF

Havaalanları :

Mitiga International Airport

Trablus, Libya

Enlem: 32-54N, Boylam: 13-17E, yükseklik: 11 m

Güncel hava durumu gözlemi

Rapor saat 23:50 UTC de 24 dakika önce yapıldı.
Rüzgar kuzeydoğudan 2 kt
Sıcaklık 26°C
Nem 74%
Basınç 1013 hPa
Görüş mesafesi: 7000 m
2500 ft yükseklikte az bulutlu

METAR: HLLM 202350Z 05002KT 7000 FEW025 26/21 Q1013

Saat: 02:14 (00:14 UTC)

Tahmin

Rapor saat 17:00 UTC de 7 saat ve 14 dakika önce yapıldı.
Ayın 20'si saat 18 UTC'den ayın 21'si saat 18 UTC'ye kadar geçerli Tahmin
Rüzgar değişken yönden 2 kt
Görüş mesafesi 10 km veya daha fazla
2500 ft yükseklikte parçalı bulutlu
Olasılık 40%
ayın 21'si saat 03 UTC'den ayın 21'si saat 06 UTC'ye kadar
Görüş mesafesi: 5000 m
Pus
Dönüşüyor
ayın 21'si saat 10 UTC'den ayın 21'si saat 12 UTC'ye kadar
Rüzgar batı/kuzeybatıdan 10 kt

TAF: HLLM 201700Z 2018/2118 VRB02KT 9999 SCT025 PROB40 2103/2106 5000 BR BECMG 2110/2112 30010KT

4.000'den fazla havaalanı için hava durumu gözlemleri ve tahminleri (METAR ve TAF raporları).

Kullanılabilir istasyonlar harita üzerinde sarı ve kırmızı noktalarla gösterilir.

İstasyonun adını görmek için fareyi noktanın üzerinde gezdirin.

Sonrasında hava gözlem ve tahminlerini görmek için tıklayın.

Haritayı değiştirmek için: yaklaştırmak için siyah artı işaretli yeşil düğmeye ve uzaklaştırmak için de eksi işaretli düğmeye hızla tıklayın; bitişik haritalar için yeşil okları kullanın.


METAR-TAF: